Time;durP1;ratioP1;P1;durP2;ratioP2;P2;SDS_P1;SDS_P2;PMS_P1;PMS_P2;Temp;Humidity;BMP_temperature;BMP_pressure;BME280_temperature;BME280_humidity;BME280_pressure;Samples;Min_cycle;Max_cycle;Signal;HPM_P1;HPM_P2
2022/12/14 00:01:36;;;;;;;9.97;6.10;;;-2.40;99.90;;;;;;5094005;28;20198;-47
2022/12/14 00:04:02;;;;;;;14.07;8.03;;;-2.40;99.90;;;;;;5094119;28;20684;-49
2022/12/14 00:06:30;;;;;;;18.60;9.47;;;-2.40;99.90;;;;;;5093984;28;20187;-47
2022/12/14 00:08:58;;;;;;;14.33;7.47;;;-2.40;99.90;;;;;;5093741;28;20681;-48
2022/12/14 00:11:24;;;;;;;17.00;9.10;;;-2.40;99.90;;;;;;5093637;28;20502;-48
2022/12/14 00:13:58;;;;;;;16.70;9.20;;;-2.40;99.90;;;;;;5093776;28;20556;-48
2022/12/14 00:16:27;;;;;;;16.67;9.70;;;-2.40;99.90;;;;;;5075583;28;20920;-47
2022/12/14 00:18:53;;;;;;;15.47;9.10;;;-2.40;99.90;;;;;;5093630;28;20529;-47
2022/12/14 00:21:19;;;;;;;17.00;9.23;;;-2.40;99.90;;;;;;5093618;28;20554;-47
2022/12/14 00:23:46;;;;;;;14.87;8.27;;;-2.40;99.90;;;;;;5094134;28;20746;-49
2022/12/14 00:26:14;;;;;;;15.43;8.63;;;-2.40;99.90;;;;;;5093467;28;20903;-47
2022/12/14 00:28:42;;;;;;;13.43;7.30;;;-2.40;99.90;;;;;;5093559;28;20440;-47
2022/12/14 00:31:07;;;;;;;15.90;8.30;;;-2.40;99.90;;;;;;5093304;28;20470;-48
2022/12/14 00:33:34;;;;;;;17.40;9.67;;;-2.40;99.90;;;;;;5093363;28;20516;-48
2022/12/14 00:36:00;;;;;;;18.27;9.70;;;-2.40;99.90;;;;;;5093395;28;20175;-49
2022/12/14 00:38:26;;;;;;;14.33;8.90;;;-2.30;99.90;;;;;;5093272;28;20942;-48
2022/12/14 00:40:53;;;;;;;17.67;8.80;;;-2.40;99.90;;;;;;5075359;28;20453;-47
2022/12/14 00:43:19;;;;;;;17.03;8.60;;;-2.30;99.90;;;;;;5093453;28;20178;-48
2022/12/14 00:45:45;;;;;;;14.77;7.53;;;-2.30;99.90;;;;;;5093543;28;20415;-48
2022/12/14 00:48:11;;;;;;;12.60;7.23;;;-2.30;99.90;;;;;;5096122;28;20892;-48
2022/12/14 00:50:37;;;;;;;14.83;8.90;;;-2.30;99.90;;;;;;5097403;28;20252;-48
2022/12/14 00:53:03;;;;;;;10.33;5.93;;;-2.30;99.90;;;;;;5079536;28;20748;-47
2022/12/14 00:55:29;;;;;;;18.60;8.73;;;-2.30;99.90;;;;;;5097426;28;20416;-48
2022/12/14 00:57:54;;;;;;;15.97;8.37;;;-2.30;99.90;;;;;;5097534;28;20646;-48
2022/12/14 01:00:20;;;;;;;15.97;7.70;;;-2.30;99.90;;;;;;5097687;28;20195;-49
2022/12/14 01:02:46;;;;;;;18.57;8.50;;;-2.30;99.90;;;;;;5097206;28;20186;-47
2022/12/14 01:05:11;;;;;;;10.97;6.63;;;-2.30;99.90;;;;;;5097357;28;20285;-49
2022/12/14 01:07:37;;;;;;;16.47;8.17;;;-2.30;99.90;;;;;;5097744;28;20533;-49
2022/12/14 01:10:03;;;;;;;16.13;8.70;;;-2.30;99.90;;;;;;5097544;28;20291;-49
2022/12/14 01:12:28;;;;;;;19.40;9.07;;;-2.30;99.90;;;;;;5098233;28;20251;-49
2022/12/14 01:14:54;;;;;;;18.07;7.70;;;-2.30;99.90;;;;;;5097941;28;20904;-49
2022/12/14 01:17:19;;;;;;;15.67;8.33;;;-2.30;99.90;;;;;;5097916;28;20639;-49
2022/12/14 01:19:46;;;;;;;13.93;8.20;;;-2.30;99.90;;;;;;5097611;28;20576;-48
2022/12/14 01:22:11;;;;;;;10.87;6.43;;;-2.30;99.90;;;;;;5097137;28;20197;-48
2022/12/14 01:24:37;;;;;;;9.20;5.40;;;-2.30;99.90;;;;;;5096833;28;20405;-48
2022/12/14 01:27:03;;;;;;;14.50;8.23;;;-2.30;99.90;;;;;;5097736;28;20695;-48
2022/12/14 01:29:28;;;;;;;15.43;7.93;;;-2.20;99.90;;;;;;5097050;28;20202;-48
2022/12/14 01:31:54;;;;;;;15.60;8.87;;;-2.30;99.90;;;;;;5096887;28;20702;-48
2022/12/14 01:34:19;;;;;;;13.33;8.07;;;-2.30;99.90;;;;;;5097068;28;20182;-48
2022/12/14 01:36:45;;;;;;;14.90;7.93;;;-2.30;99.90;;;;;;5097089;28;20209;-47
2022/12/14 01:39:12;;;;;;;15.10;8.40;;;-2.30;99.90;;;;;;5096824;28;20232;-48
2022/12/14 01:41:40;;;;;;;15.87;8.00;;;-2.30;99.90;;;;;;5096953;28;20181;-48
2022/12/14 01:44:08;;;;;;;14.47;8.17;;;-2.30;99.90;;;;;;5096976;28;20546;-48
2022/12/14 01:46:39;;;;;;;15.47;8.57;;;-2.30;99.90;;;;;;5096508;28;20409;-48
2022/12/14 01:49:33;;;;;;;16.97;7.67;;;-2.30;99.90;;;;;;5096796;28;20476;-48
2022/12/14 01:52:25;;;;;;;14.47;7.40;;;-2.30;99.90;;;;;;5096367;28;20896;-48
2022/12/14 01:55:18;;;;;;;14.90;8.07;;;-2.40;99.90;;;;;;5078571;28;20409;-48
2022/12/14 01:57:59;;;;;;;13.73;8.50;;;-2.40;99.90;;;;;;5095740;28;20539;-49
2022/12/14 02:00:25;;;;;;;14.60;8.67;;;-2.40;99.90;;;;;;5095474;28;20950;-48
2022/12/14 02:02:59;;;;;;;14.53;8.60;;;-2.40;99.90;;;;;;5096491;28;20447;-48
2022/12/14 02:05:26;;;;;;;15.47;8.57;;;-2.40;99.90;;;;;;5097026;28;20405;-49
2022/12/14 02:07:54;;;;;;;14.93;8.20;;;-2.50;99.90;;;;;;5096542;28;20413;-47
2022/12/14 02:10:23;;;;;;;15.47;8.50;;;-2.50;99.90;;;;;;5096503;28;20914;-47
2022/12/14 02:12:54;;;;;;;13.43;7.20;;;-2.50;99.90;;;;;;5097059;28;20479;-47
2022/12/14 02:15:20;;;;;;;12.37;7.10;;;-2.50;99.90;;;;;;5097620;28;20411;-46
2022/12/14 02:17:47;;;;;;;9.53;5.87;;;-2.50;99.90;;;;;;5103089;28;20424;-47
2022/12/14 02:20:15;;;;;;;16.07;8.23;;;-2.50;99.90;;;;;;5107183;28;20213;-46
2022/12/14 02:22:46;;;;;;;14.70;7.30;;;-2.50;99.90;;;;;;5097548;28;20504;-46
2022/12/14 02:25:39;;;;;;;10.13;6.07;;;-2.50;99.90;;;;;;5096425;28;20410;-47
2022/12/14 02:28:18;;;;;;;9.50;6.17;;;-2.40;99.90;;;;;;5077789;28;20751;-45
2022/12/14 02:30:54;;;;;;;11.20;6.67;;;-2.40;99.90;;;;;;5096469;28;20441;-46
2022/12/14 02:33:40;;;;;;;7.77;4.23;;;-2.40;99.90;;;;;;5096050;28;20435;-46
2022/12/14 02:36:32;;;;;;;12.90;7.37;;;-2.40;99.90;;;;;;5096084;28;20400;-47
2022/12/14 02:39:05;;;;;;;11.27;7.13;;;-2.40;99.90;;;;;;5095770;28;20508;-47
2022/12/14 02:41:50;;;;;;;12.13;7.03;;;-2.40;99.90;;;;;;5095747;28;20397;-45
2022/12/14 02:45:01;;;;;;;13.37;6.23;;;-2.30;99.90;;;;;;5095427;28;20458;-46
2022/12/14 02:47:43;;;;;;;10.83;6.40;;;-2.30;99.90;;;;;;5084261;28;20502;-47
2022/12/14 02:50:25;;;;;;;11.80;6.53;;;-2.30;99.90;;;;;;5095351;28;20467;-47
2022/12/14 02:53:29;;;;;;;12.37;6.40;;;-2.30;99.90;;;;;;5095871;28;20400;-45
2022/12/14 02:55:59;;;;;;;13.40;7.40;;;-2.30;99.90;;;;;;5094908;28;20424;-45
2022/12/14 02:58:38;;;;;;;12.10;7.23;;;-2.30;99.90;;;;;;5095072;28;20397;-47
2022/12/14 03:01:07;;;;;;;14.53;7.03;;;-2.30;99.90;;;;;;5095466;28;20444;-47
2022/12/14 03:03:32;;;;;;;12.10;7.13;;;-2.30;99.90;;;;;;5095471;28;20499;-47
2022/12/14 03:06:01;;;;;;;12.23;7.03;;;-2.30;99.90;;;;;;5095236;28;20498;-45
2022/12/14 03:08:30;;;;;;;13.43;5.87;;;-2.30;99.90;;;;;;5094874;28;20175;-45
2022/12/14 03:10:59;;;;;;;10.73;6.80;;;-2.30;99.90;;;;;;5095050;28;20460;-45
2022/12/14 03:13:37;;;;;;;13.13;6.70;;;-2.30;99.90;;;;;;5095408;28;20779;-46
2022/12/14 03:16:29;;;;;;;12.03;6.40;;;-2.40;99.90;;;;;;5095520;28;20921;-46
2022/12/14 03:19:09;;;;;;;12.87;6.70;;;-2.30;99.90;;;;;;5094831;28;20432;-45
2022/12/14 03:21:43;;;;;;;10.70;6.53;;;-2.40;99.90;;;;;;5095272;28;20399;-46
2022/12/14 03:24:11;;;;;;;12.63;7.03;;;-2.30;99.90;;;;;;5094897;28;20397;-45
2022/12/14 03:26:39;;;;;;;12.47;6.30;;;-2.30;99.90;;;;;;5094974;28;20413;-46
2022/12/14 03:29:13;;;;;;;9.87;6.03;;;-2.30;99.90;;;;;;5094417;28;20532;-47
2022/12/14 03:32:08;;;;;;;12.30;7.10;;;-2.30;99.90;;;;;;5094940;28;20455;-47
2022/12/14 03:34:41;;;;;;;15.27;7.60;;;-2.30;99.90;;;;;;5094693;28;20504;-45
2022/12/14 03:37:39;;;;;;;10.20;6.17;;;-2.30;99.90;;;;;;5094491;28;20507;-47
2022/12/14 03:40:10;;;;;;;12.67;7.30;;;-2.30;99.90;;;;;;5094473;28;20567;-46
2022/12/14 03:42:44;;;;;;;14.10;7.23;;;-2.30;99.90;;;;;;5094525;28;20876;-45
2022/12/14 03:45:27;;;;;;;11.33;6.37;;;-2.30;99.90;;;;;;5094475;28;20738;-46
2022/12/14 03:48:04;;;;;;;12.13;7.10;;;-2.30;99.90;;;;;;5094381;28;20781;-47
2022/12/14 03:50:40;;;;;;;12.93;7.27;;;-2.30;99.90;;;;;;5094242;28;20457;-47
2022/12/14 03:53:19;;;;;;;11.83;6.20;;;-2.40;99.90;;;;;;5094436;28;20396;-46
2022/12/14 03:56:12;;;;;;;11.07;6.07;;;-2.30;99.90;;;;;;5094307;28;20392;-45
2022/12/14 03:59:02;;;;;;;12.17;7.60;;;-2.40;99.90;;;;;;5094290;28;20452;-46
2022/12/14 04:01:56;;;;;;;10.83;6.30;;;-2.30;99.90;;;;;;5093778;28;20939;-47
2022/12/14 04:04:59;;;;;;;14.27;6.97;;;-2.30;99.90;;;;;;5094165;28;20397;-47
2022/12/14 04:07:38;;;;;;;12.50;6.13;;;-2.30;99.90;;;;;;5094110;28;20770;-47
2022/12/14 04:18:58;;;;;;;14.77;7.60;;;-2.40;99.90;;;;;;5094173;28;20440;-42
2022/12/14 04:21:38;;;;;;;11.93;7.03;;;-2.40;99.90;;;;;;5093879;28;20405;-41
2022/12/14 04:27:31;;;;;;;11.60;6.83;;;-2.40;99.90;;;;;;5094046;28;20797;-42
2022/12/14 04:30:00;;;;;;;13.93;7.53;;;-2.40;99.90;;;;;;5093997;28;20889;-44
2022/12/14 04:32:40;;;;;;;11.53;6.83;;;-2.40;99.90;;;;;;5093507;28;20417;-43
2022/12/14 04:35:29;;;;;;;13.43;7.63;;;-2.40;99.90;;;;;;5094002;28;20505;-42
2022/12/14 04:38:05;;;;;;;14.17;6.13;;;-2.40;99.90;;;;;;5093630;28;20408;-42
2022/12/14 04:40:43;;;;;;;10.47;7.00;;;-2.30;99.90;;;;;;5094001;28;20905;-43
2022/12/14 04:43:15;;;;;;;10.97;6.80;;;-2.30;99.90;;;;;;5093759;28;20896;-45
2022/12/14 04:45:58;;;;;;;12.77;7.03;;;-2.40;99.90;;;;;;5076124;28;20410;-43
2022/12/14 04:48:39;;;;;;;13.17;7.43;;;-2.30;99.90;;;;;;5094611;28;20435;-42
2022/12/14 04:51:24;;;;;;;12.07;6.87;;;-2.30;99.90;;;;;;5094134;28;20451;-41
2022/12/14 04:53:56;;;;;;;10.67;6.47;;;-2.30;99.90;;;;;;5094289;28;20485;-45
2022/12/14 04:56:31;;;;;;;13.27;7.27;;;-2.30;99.90;;;;;;5094546;28;20390;-47
2022/12/14 04:58:57;;;;;;;13.70;7.63;;;-2.30;99.90;;;;;;5094942;28;20424;-46
2022/12/14 05:01:22;;;;;;;9.50;5.63;;;-2.30;99.90;;;;;;5077406;28;20439;-46
2022/12/14 05:04:11;;;;;;;11.73;6.63;;;-2.30;99.90;;;;;;5100758;28;20226;-46
2022/12/14 05:06:59;;;;;;;12.20;6.53;;;-2.30;99.90;;;;;;5112260;28;20167;-46
2022/12/14 05:09:43;;;;;;;13.60;6.70;;;-2.30;99.90;;;;;;5096697;28;20447;-45
2022/12/14 05:12:45;;;;;;;8.60;5.73;;;-2.20;99.90;;;;;;5093882;28;20393;-45
2022/12/14 05:15:22;;;;;;;11.80;6.70;;;-2.30;99.90;;;;;;5093955;28;20406;-46
2022/12/14 05:17:48;;;;;;;10.73;6.17;;;-2.20;99.90;;;;;;5076335;28;20409;-47
2022/12/14 05:20:20;;;;;;;11.30;6.40;;;-2.20;99.90;;;;;;5093740;28;20771;-47
2022/12/14 05:22:46;;;;;;;10.67;5.57;;;-2.20;99.90;;;;;;5093681;28;20413;-46
2022/12/14 05:25:11;;;;;;;11.27;7.27;;;-2.20;99.90;;;;;;5093480;28;20810;-46
2022/12/14 05:27:37;;;;;;;10.97;6.20;;;-2.20;99.90;;;;;;5093447;28;20185;-46
2022/12/14 05:30:05;;;;;;;13.83;7.40;;;-2.20;99.90;;;;;;5092933;28;20242;-45
2022/12/14 05:32:31;;;;;;;9.70;5.80;;;-2.20;99.90;;;;;;5092969;28;20167;-44
2022/12/14 05:34:57;;;;;;;12.70;7.33;;;-2.20;99.90;;;;;;5078489;28;20412;-46
2022/12/14 05:37:22;;;;;;;18.73;7.77;;;-2.20;99.90;;;;;;5097024;28;20417;-47
2022/12/14 05:39:48;;;;;;;14.30;7.10;;;-2.20;99.90;;;;;;5096981;28;20285;-47
2022/12/14 05:42:14;;;;;;;12.87;6.10;;;-2.20;99.90;;;;;;5096694;28;20587;-45
2022/12/14 05:44:39;;;;;;;14.60;7.87;;;-2.20;99.90;;;;;;5096713;28;20179;-47
2022/12/14 05:47:05;;;;;;;12.90;7.33;;;-2.30;99.90;;;;;;5096900;28;20231;-46
2022/12/14 05:49:35;;;;;;;12.93;6.83;;;-2.20;99.90;;;;;;5097001;28;20218;-46
2022/12/14 05:52:01;;;;;;;12.17;6.97;;;-2.20;99.90;;;;;;5096583;28;20175;-46
2022/12/14 05:54:27;;;;;;;14.33;7.03;;;-2.20;99.90;;;;;;5097907;28;20407;-46
2022/12/14 05:56:52;;;;;;;11.17;6.60;;;-2.20;99.90;;;;;;5096254;28;20175;-46
2022/12/14 05:59:18;;;;;;;11.87;6.80;;;-2.20;99.90;;;;;;5096873;28;20256;-47
2022/12/14 06:01:44;;;;;;;15.40;7.17;;;-2.20;99.90;;;;;;5097153;28;20662;-46
2022/12/14 06:04:14;;;;;;;10.73;6.60;;;-2.20;99.90;;;;;;5097331;28;20250;-45
2022/12/14 06:06:40;;;;;;;10.00;6.20;;;-2.20;99.90;;;;;;5096016;28;20916;-45
2022/12/14 06:09:08;;;;;;;12.37;6.23;;;-2.20;99.90;;;;;;5096103;28;20827;-46
2022/12/14 06:11:41;;;;;;;14.03;6.93;;;-2.20;99.90;;;;;;5096177;28;20444;-46
2022/12/14 06:14:08;;;;;;;13.63;7.27;;;-2.20;99.90;;;;;;5095985;28;20396;-45
2022/12/14 06:16:34;;;;;;;12.43;7.27;;;-2.20;99.90;;;;;;5096101;28;20394;-46
2022/12/14 06:19:02;;;;;;;14.77;7.33;;;-2.20;99.90;;;;;;5096198;28;20496;-48
2022/12/14 06:21:32;;;;;;;13.30;7.70;;;-2.20;99.90;;;;;;5096139;28;20423;-46
2022/12/14 06:23:59;;;;;;;8.70;5.50;;;-2.20;99.90;;;;;;5077684;28;20413;-47
2022/12/14 06:26:26;;;;;;;12.07;6.83;;;-2.20;99.90;;;;;;5096060;28;20403;-46
2022/12/14 06:28:52;;;;;;;14.13;7.33;;;-2.20;99.90;;;;;;5095936;28;20433;-45
2022/12/14 06:31:29;;;;;;;12.97;7.50;;;-2.20;99.90;;;;;;5096292;28;20525;-46
2022/12/14 06:34:00;;;;;;;14.10;7.27;;;-2.20;99.90;;;;;;5095742;28;20170;-47
2022/12/14 06:36:28;;;;;;;13.40;7.37;;;-2.20;99.90;;;;;;5095545;28;20392;-47
2022/12/14 06:38:55;;;;;;;11.60;7.27;;;-2.10;99.90;;;;;;5095446;28;20523;-46
2022/12/14 06:41:22;;;;;;;12.97;7.50;;;-2.20;99.90;;;;;;5096017;28;20413;-46
2022/12/14 06:43:48;;;;;;;13.83;7.90;;;-2.20;99.90;;;;;;5095249;28;20749;-47
2022/12/14 06:46:16;;;;;;;11.70;6.97;;;-2.20;99.90;;;;;;5095070;28;20413;-47
2022/12/14 06:48:42;;;;;;;13.93;7.37;;;-2.20;99.90;;;;;;5095252;28;20429;-47
2022/12/14 06:51:08;;;;;;;12.37;7.57;;;-2.20;99.90;;;;;;5095179;28;20452;-46
2022/12/14 06:53:34;;;;;;;11.17;6.90;;;-2.20;99.90;;;;;;5095456;28;20409;-46
2022/12/14 06:56:12;;;;;;;14.27;7.90;;;-2.20;99.90;;;;;;5095326;28;20710;-46
2022/12/14 06:58:38;;;;;;;11.13;6.93;;;-2.20;99.90;;;;;;5094910;28;20482;-45
2022/12/14 07:01:09;;;;;;;15.03;7.23;;;-2.20;99.90;;;;;;5095024;28;20440;-46
2022/12/14 07:03:35;;;;;;;13.63;7.00;;;-2.20;99.90;;;;;;5095527;28;20177;-46
2022/12/14 07:06:03;;;;;;;11.20;7.27;;;-2.20;99.90;;;;;;5095534;28;20417;-46
2022/12/14 07:08:30;;;;;;;12.07;7.33;;;-2.20;99.90;;;;;;5094860;28;20423;-47
2022/12/14 07:10:59;;;;;;;13.57;7.23;;;-2.20;99.90;;;;;;5095002;28;20449;-47
2022/12/14 07:13:25;;;;;;;13.93;7.07;;;-2.20;99.90;;;;;;5095006;28;20432;-47
2022/12/14 07:15:59;;;;;;;13.30;7.27;;;-2.20;99.90;;;;;;5094852;28;20901;-45
2022/12/14 07:18:26;;;;;;;16.67;7.13;;;-2.20;99.90;;;;;;5094979;28;20170;-46
2022/12/14 07:21:08;;;;;;;11.63;6.97;;;-2.20;99.90;;;;;;5095064;28;20420;-47
2022/12/14 07:23:36;;;;;;;13.33;8.07;;;-2.30;99.90;;;;;;5094713;28;20441;-45
2022/12/14 07:26:07;;;;;;;11.07;6.30;;;-2.20;99.90;;;;;;5076554;28;20421;-45
2022/12/14 07:28:35;;;;;;;13.57;7.57;;;-2.20;99.90;;;;;;5095055;28;20810;-46
2022/12/14 07:31:01;;;;;;;10.17;5.97;;;-2.20;99.90;;;;;;5094813;28;20491;-47
2022/12/14 07:33:27;;;;;;;11.20;6.40;;;-2.20;99.90;;;;;;5095119;28;20944;-46
2022/12/14 07:36:09;;;;;;;14.43;7.90;;;-2.20;99.90;;;;;;5095084;28;20658;-42
2022/12/14 07:38:36;;;;;;;11.17;6.73;;;-2.20;99.90;;;;;;5094571;28;20381;-42
2022/12/14 07:41:08;;;;;;;12.13;7.17;;;-2.20;99.90;;;;;;5076219;28;20420;-40
2022/12/14 07:43:34;;;;;;;13.17;6.97;;;-2.20;99.90;;;;;;5076214;28;20513;-42
2022/12/14 07:46:02;;;;;;;11.53;7.07;;;-2.10;99.90;;;;;;5094499;28;20807;-42
2022/12/14 07:48:28;;;;;;;13.00;7.60;;;-2.20;99.90;;;;;;5094166;28;20440;-43
2022/12/14 07:50:59;;;;;;;13.80;7.03;;;-2.10;99.90;;;;;;5094434;28;20606;-40
2022/12/14 07:53:25;;;;;;;13.17;7.53;;;-2.20;99.90;;;;;;5094439;28;20156;-44
2022/12/14 07:55:50;;;;;;;15.23;6.90;;;-2.10;99.90;;;;;;5094060;28;20466;-43
2022/12/14 07:58:16;;;;;;;13.00;6.63;;;-2.10;99.90;;;;;;5101892;28;20179;-44
2022/12/14 08:00:42;;;;;;;17.07;7.60;;;-2.10;99.90;;;;;;5106544;28;20281;-43
2022/12/14 08:03:08;;;;;;;13.83;7.67;;;-2.10;99.90;;;;;;5076691;28;20183;-44
2022/12/14 08:05:37;;;;;;;15.13;7.50;;;-2.10;99.90;;;;;;5095094;28;20475;-43
2022/12/14 08:08:02;;;;;;;14.10;7.53;;;-2.10;99.90;;;;;;5094698;28;20170;-43
2022/12/14 08:10:28;;;;;;;13.60;7.50;;;-2.10;99.90;;;;;;5076104;28;21062;-42
2022/12/14 08:12:53;;;;;;;11.77;6.87;;;-2.10;99.90;;;;;;5094434;28;20258;-42
2022/12/14 08:15:19;;;;;;;19.67;6.90;;;-2.10;99.90;;;;;;5093841;28;20639;-42
2022/12/14 08:17:45;;;;;;;12.23;6.93;;;-2.10;99.90;;;;;;5094221;28;20258;-42
2022/12/14 08:20:11;;;;;;;14.47;7.60;;;-2.00;99.90;;;;;;5093780;28;20230;-43
2022/12/14 08:22:37;;;;;;;15.70;7.50;;;-2.00;99.90;;;;;;5075540;28;20179;-44
2022/12/14 08:25:02;;;;;;;14.83;7.33;;;-2.00;99.90;;;;;;5094010;28;20408;-43
2022/12/14 08:27:29;;;;;;;9.87;4.97;;;-2.00;99.90;;;;;;5093639;28;20175;-43
2022/12/14 08:29:55;;;;;;;18.07;7.83;;;-2.00;99.90;;;;;;5075892;28;20210;-43
2022/12/14 08:32:20;;;;;;;13.53;7.67;;;-1.90;99.90;;;;;;5093616;28;20413;-42
2022/12/14 08:34:46;;;;;;;15.87;7.63;;;-1.90;99.90;;;;;;5075475;28;20170;-43
2022/12/14 08:37:12;;;;;;;15.57;7.33;;;-1.90;99.90;;;;;;5075988;28;20261;-43
2022/12/14 08:39:37;;;;;;;21.37;7.13;;;-1.80;99.90;;;;;;5093416;28;20680;-43
2022/12/14 08:42:03;;;;;;;16.83;7.50;;;-1.80;99.90;;;;;;5075758;28;20179;-42
2022/12/14 08:44:28;;;;;;;13.80;7.00;;;-1.80;99.90;;;;;;5094062;28;20171;-42
2022/12/14 08:46:54;;;;;;;14.63;7.87;;;-1.80;99.90;;;;;;5075346;28;20235;-42
2022/12/14 08:49:20;;;;;;;13.70;7.70;;;-1.80;99.90;;;;;;5093480;28;20256;-43
2022/12/14 08:51:45;;;;;;;15.27;8.33;;;-1.70;99.90;;;;;;5075053;28;20202;-42
2022/12/14 08:54:11;;;;;;;14.37;8.23;;;-1.70;99.90;;;;;;5093619;28;20206;-42
2022/12/14 08:56:38;;;;;;;13.97;7.83;;;-1.70;99.90;;;;;;5094159;28;20226;-43
2022/12/14 08:59:04;;;;;;;11.53;7.53;;;-1.70;99.90;;;;;;5093324;28;20455;-41
2022/12/14 09:01:30;;;;;;;13.10;8.77;;;-1.60;99.90;;;;;;5093056;28;20278;-44
2022/12/14 09:04:00;;;;;;;12.27;7.77;;;-1.60;99.90;;;;;;5074971;28;20215;-40
2022/12/14 09:06:26;;;;;;;11.20;6.93;;;-1.50;99.90;;;;;;5093487;28;20393;-44
2022/12/14 09:08:52;;;;;;;16.23;8.13;;;-1.50;99.90;;;;;;5077131;28;20959;-41
2022/12/14 09:11:19;;;;;;;14.13;7.70;;;-1.40;99.90;;;;;;5097417;28;20452;-42
2022/12/14 09:13:46;;;;;;;15.07;8.20;;;-1.40;99.90;;;;;;5096992;28;20924;-42
2022/12/14 09:16:16;;;;;;;14.67;7.67;;;-1.40;99.90;;;;;;5097394;28;20423;-43
2022/12/14 09:18:41;;;;;;;13.90;8.43;;;-1.30;99.90;;;;;;5098136;28;20772;-43
2022/12/14 09:21:07;;;;;;;15.90;8.37;;;-1.30;99.90;;;;;;5097410;28;20416;-42
2022/12/14 09:23:34;;;;;;;14.33;8.23;;;-1.30;99.90;;;;;;5096984;28;20607;-44
2022/12/14 09:26:12;;;;;;;18.37;8.27;;;-1.20;99.90;;;;;;5096999;28;20209;-43
2022/12/14 09:28:40;;;;;;;13.17;8.13;;;-1.20;99.90;;;;;;5097182;28;20405;-43
2022/12/14 09:31:09;;;;;;;14.47;7.43;;;-1.20;99.90;;;;;;5096944;28;20821;-45
2022/12/14 09:33:36;;;;;;;13.90;7.73;;;-1.20;99.90;;;;;;5096836;28;20809;-44
2022/12/14 09:36:12;;;;;;;14.03;8.07;;;-1.10;99.90;;;;;;5078569;28;20924;-42
2022/12/14 09:38:38;;;;;;;13.10;7.83;;;-1.10;99.90;;;;;;5078428;28;20403;-43
2022/12/14 09:41:24;;;;;;;13.53;7.77;;;-1.10;99.90;;;;;;5096926;28;20763;-43
2022/12/14 09:43:56;;;;;;;17.50;7.37;;;-1.10;99.90;;;;;;5097074;28;20393;-43
2022/12/14 09:46:27;;;;;;;11.97;7.40;;;-1.00;99.90;;;;;;5097318;28;20733;-43
2022/12/14 09:48:55;;;;;;;15.00;8.70;;;-1.00;99.90;;;;;;5096712;28;20545;-40
2022/12/14 09:51:21;;;;;;;15.10;7.53;;;-1.00;99.90;;;;;;5096421;28;20815;-43
2022/12/14 09:53:53;;;;;;;12.77;8.20;;;-1.00;99.90;;;;;;5096385;28;20424;-43
2022/12/14 09:56:19;;;;;;;15.83;8.00;;;-0.90;99.90;;;;;;5096584;28;20401;-42
2022/12/14 09:58:56;;;;;;;13.77;7.10;;;-0.90;99.90;;;;;;5096301;28;20460;-44
2022/12/14 10:01:21;;;;;;;14.93;8.03;;;-0.90;99.90;;;;;;5096172;28;20449;-41
2022/12/14 10:04:05;;;;;;;16.53;7.53;;;-0.80;99.90;;;;;;5096082;28;20428;-44
2022/12/14 10:06:46;;;;;;;15.00;8.30;;;-0.80;99.90;;;;;;5096719;28;20700;-44
2022/12/14 10:09:14;;;;;;;13.97;8.27;;;-0.80;99.90;;;;;;5096017;28;20518;-43
2022/12/14 10:11:56;;;;;;;17.27;8.10;;;-0.80;99.90;;;;;;5096194;28;20452;-44
2022/12/14 10:14:54;;;;;;;12.63;7.83;;;-0.70;99.90;;;;;;5096562;28;20752;-42
2022/12/14 10:17:32;;;;;;;13.80;8.03;;;-0.70;99.90;;;;;;5096228;28;20429;-44
2022/12/14 10:20:22;;;;;;;18.37;8.83;;;-0.60;99.90;;;;;;5094861;28;20520;-44
2022/12/14 10:22:51;;;;;;;12.43;8.03;;;-0.60;99.90;;;;;;5095670;28;20424;-44
2022/12/14 10:25:33;;;;;;;15.43;8.77;;;-0.50;99.90;;;;;;5095898;28;20409;-42
2022/12/14 10:28:06;;;;;;;13.00;7.73;;;-0.50;99.90;;;;;;5096137;28;20685;-44
2022/12/14 10:30:34;;;;;;;16.73;8.03;;;-0.50;99.90;;;;;;5095566;28;20472;-44
2022/12/14 10:33:04;;;;;;;18.67;8.83;;;-0.40;99.90;;;;;;5095758;28;20767;-44
2022/12/14 10:35:43;;;;;;;13.70;8.17;;;-0.40;99.90;;;;;;5096025;28;20393;-42
2022/12/14 10:38:23;;;;;;;16.93;8.63;;;-0.30;99.90;;;;;;5095970;28;20400;-42
2022/12/14 10:40:53;;;;;;;16.80;8.33;;;-0.30;99.90;;;;;;5096175;28;20421;-44
2022/12/14 10:43:31;;;;;;;16.37;8.50;;;-0.20;99.90;;;;;;5095458;28;20421;-42
2022/12/14 10:46:05;;;;;;;13.30;7.40;;;-0.20;99.90;;;;;;5095276;28;20402;-42
2022/12/14 10:48:44;;;;;;;15.10;8.10;;;-0.20;99.90;;;;;;5095291;28;20417;-42
2022/12/14 10:51:29;;;;;;;15.57;7.80;;;-0.10;99.90;;;;;;5098765;28;20441;-44
2022/12/14 10:54:02;;;;;;;12.83;7.23;;;0.00;99.90;;;;;;5098625;28;20781;-45
2022/12/14 10:56:31;;;;;;;20.57;8.40;;;0.10;99.90;;;;;;5104834;28;20397;-43
2022/12/14 10:59:22;;;;;;;10.47;5.73;;;0.20;99.90;;;;;;5095727;28;20432;-44
2022/12/14 11:02:04;;;;;;;14.13;8.43;;;0.30;99.90;;;;;;5096397;28;20509;-42
2022/12/14 11:04:54;;;;;;;18.37;8.43;;;0.30;99.90;;;;;;5096555;28;20429;-43
2022/12/14 11:07:23;;;;;;;16.10;8.33;;;0.40;99.90;;;;;;5097633;28;20864;-42
2022/12/14 11:09:48;;;;;;;14.10;8.47;;;0.50;99.90;;;;;;5094693;28;20544;-45
2022/12/14 11:12:25;;;;;;;13.80;8.27;;;0.50;99.90;;;;;;5096099;28;21022;-41
2022/12/14 11:14:58;;;;;;;17.97;8.57;;;0.50;99.90;;;;;;5095752;28;20172;-42
2022/12/14 11:17:35;;;;;;;16.33;8.90;;;2.40;99.90;;;;;;5096137;28;20410;-42
2022/12/14 11:20:26;;;;;;;11.40;7.33;;;0.50;99.90;;;;;;5095440;28;20445;-43
2022/12/14 11:22:54;;;;;;;14.60;8.70;;;0.60;99.90;;;;;;5095538;28;20749;-42
2022/12/14 11:25:39;;;;;;;16.83;8.43;;;0.50;99.90;;;;;;5095408;28;20411;-41
2022/12/14 11:28:26;;;;;;;14.20;7.87;;;0.50;99.90;;;;;;5095187;28;20405;-45
2022/12/14 11:31:09;;;;;;;13.20;8.40;;;0.60;99.90;;;;;;5094699;28;20463;-42
2022/12/14 11:33:42;;;;;;;19.10;8.17;;;0.60;99.90;;;;;;5096044;28;20393;-46
2022/12/14 11:36:21;;;;;;;14.23;8.23;;;0.60;99.90;;;;;;5095288;28;20387;-44
2022/12/14 11:38:56;;;;;;;15.27;8.40;;;0.70;99.90;;;;;;5094904;28;20418;-44
2022/12/14 11:41:23;;;;;;;17.47;8.53;;;0.70;99.90;;;;;;5095239;28;20839;-44
2022/12/14 11:44:22;;;;;;;14.83;9.67;;;0.70;99.90;;;;;;5094732;28;20412;-44
2022/12/14 11:46:56;;;;;;;14.20;8.50;;;0.80;99.90;;;;;;5050425;28;20927;-42
2022/12/14 11:49:31;;;;;;;13.67;8.70;;;0.90;99.90;;;;;;5094264;28;20922;-41
2022/12/14 11:52:24;;;;;;;13.10;8.70;;;0.90;99.90;;;;;;5094484;28;20457;-45
2022/12/14 11:54:56;;;;;;;13.17;8.13;;;1.00;99.90;;;;;;5076015;28;20409;-43
2022/12/14 11:57:26;;;;;;;12.97;8.30;;;1.10;99.90;;;;;;5094882;28;20729;-43
2022/12/14 11:59:55;;;;;;;15.67;8.80;;;1.20;99.90;;;;;;5075829;28;20250;-44
2022/12/14 12:02:55;;;;;;;13.17;8.77;;;1.20;99.90;;;;;;5094024;28;20193;-43
2022/12/14 12:05:22;;;;;;;23.87;9.17;;;1.30;99.90;;;;;;5079645;28;20421;-44
2022/12/14 12:07:48;;;;;;;14.00;8.10;;;1.40;99.90;;;;;;5093974;28;20201;-44
2022/12/14 12:10:38;;;;;;;14.97;8.57;;;1.40;99.90;;;;;;5093797;28;20465;-46
2022/12/14 12:13:14;;;;;;;15.03;8.73;;;1.50;99.90;;;;;;5093864;28;20166;-45
2022/12/14 12:15:42;;;;;;;17.47;8.20;;;1.50;99.90;;;;;;5075597;28;20610;-44
2022/12/14 12:18:35;;;;;;;15.10;8.53;;;1.50;99.90;;;;;;5093799;28;20186;-44
2022/12/14 12:21:06;;;;;;;15.13;8.83;;;1.60;99.90;;;;;;5075635;28;20180;-45
2022/12/14 12:23:47;;;;;;;18.97;8.37;;;1.60;99.90;;;;;;5093864;28;20167;-42
2022/12/14 12:26:31;;;;;;;19.03;8.70;;;1.60;99.90;;;;;;5093535;28;20171;-44
2022/12/14 12:29:11;;;;;;;18.03;9.40;;;1.60;99.90;;;;;;5093874;28;20657;-43
2022/12/14 12:31:44;;;;;;;12.43;8.73;;;1.60;99.90;;;;;;5093988;28;20186;-45
2022/12/14 12:34:15;;;;;;;15.53;9.33;;;1.60;99.90;;;;;;5093955;28;20166;-44
2022/12/14 12:36:43;;;;;;;15.77;8.80;;;1.70;99.90;;;;;;5093857;28;20197;-45
2022/12/14 12:39:15;;;;;;;19.33;9.63;;;1.70;99.90;;;;;;5093309;28;20247;-44
2022/12/14 12:41:50;;;;;;;17.00;9.27;;;1.70;99.90;;;;;;5075443;28;20179;-45
2022/12/14 12:44:40;;;;;;;15.03;9.70;;;1.70;99.90;;;;;;5093022;28;20170;-46
2022/12/14 12:47:27;;;;;;;16.77;10.40;;;1.70;99.90;;;;;;5092947;28;20198;-50
2022/12/14 12:49:54;;;;;;;16.83;9.30;;;1.70;99.90;;;;;;5093257;28;20190;-50
2022/12/14 12:52:23;;;;;;;17.57;10.30;;;1.80;99.90;;;;;;5093324;28;20258;-52
2022/12/14 12:55:19;;;;;;;14.97;9.73;;;1.70;99.90;;;;;;5093486;28;20170;-50
2022/12/14 12:57:49;;;;;;;18.23;9.90;;;1.70;99.90;;;;;;5093428;28;20160;-49
2022/12/14 13:00:26;;;;;;;18.33;10.23;;;1.80;99.90;;;;;;5093216;28;20200;-50
2022/12/14 13:03:07;;;;;;;18.37;10.50;;;1.80;99.90;;;;;;5093040;28;20650;-49
2022/12/14 13:05:34;;;;;;;15.10;9.97;;;1.90;99.90;;;;;;5093658;28;20163;-49
2022/12/14 13:08:24;;;;;;;17.50;10.50;;;1.90;99.90;;;;;;5093230;28;20172;-50
2022/12/14 13:10:53;;;;;;;19.57;10.43;;;1.90;99.90;;;;;;5092911;28;20709;-49
2022/12/14 13:13:26;;;;;;;21.53;10.93;;;2.00;99.90;;;;;;5093948;28;20553;-50
2022/12/14 13:15:54;;;;;;;17.17;10.80;;;2.00;99.90;;;;;;5093237;28;20163;-50
2022/12/14 13:18:24;;;;;;;17.07;10.37;;;2.00;99.90;;;;;;5093129;28;20225;-50